• Join FlightAware (Why Join?)
  • Login
  • US Flag 
12:21AM EDT


 

Airport Tracker/Info


-or-


 

Live Flight TrackerFlight Track Log ✈ GJS3618 ✈ 01-Feb-2014 ✈ KIAD - KATL

Flight Track Log - Related Links

Times and Time Zones

All times are in EST time to prevent confusion due to time zone crossing. See the GJS3618 flight status page for this flight to view local times or setup timezone preferences in your user account.

Time Position Orientation Groundspeed Altitude Reporting Facility
EST Latitude Longitude Course Direction KTS MPH feet Rate Location/Type
09:04AM 38.9500 -77.5167 234° Southwest 162 186 1,700  Level Potomac TRACON
09:05AM 38.9167 -77.5333 201° Southwest 188 216 3,600 1,980 Climbing Potomac TRACON
09:06AM 38.8500 -77.5667 201° Southwest 236 272 5,500 1,740 Climbing Potomac TRACON
09:07AM 38.7833 -77.6000 201° Southwest 260 299 7,000 2,220 Climbing Potomac TRACON
09:08AM 38.5063 -77.7119 210° Southwest  Level FlightAware Approximate
09:08AM 38.7167 -77.6333 201° Southwest 259 298 10,000  Level Potomac TRACON
09:09AM 38.4528 -77.8077 234° Southwest  Level FlightAware Approximate
09:09AM 38.6706 -77.6469 193° South 263 303 11,400  Level Washington Center
09:10AM 38.5992 -77.6850 203° Southwest 289 333 12,800 1,980 Climbing Washington Center
09:11AM 38.5150 -77.7278 202° Southwest 305 351 15,400 2,280 Climbing Washington Center
09:12AM 38.4633 -77.8136 232° Southwest 310 357 17,500 1,860 Climbing Washington Center
09:13AM 38.4094 -77.9103 235° Southwest 303 349 19,200 1,680 Climbing Washington Center
09:14AM 38.3617 -78.0067 238° Southwest 311 358 20,900 1,680 Climbing Washington Center
09:15AM 38.3097 -78.1028 235° Southwest 329 379 22,600 1,440 Climbing Washington Center
09:16AM 38.2575 -78.2042 237° Southwest 336 387 23,900 1,380 Climbing Washington Center
09:17AM 38.2031 -78.3053 236° Southwest 346 398 25,400 1,380 Climbing Washington Center
09:18AM 38.1506 -78.4064 237° Southwest 346 398 26,800 1,140 Climbing Washington Center
09:19AM 38.1044 -78.5131 241° Southwest 346 398 27,800 960 Climbing Washington Center
09:20AM 38.0725 -78.6197 249° West 346 398 28,700 960 Climbing Washington Center
09:21AM 38.0275 -78.7497 246° West 368 423 29,700 960 Climbing Washington Center
09:22AM 37.9867 -78.8694 247° West 374 430 30,700 900 Climbing Washington Center
09:23AM 37.9458 -78.9886 247° West 374 430 31,600 960 Climbing Washington Center
09:24AM 37.9028 -79.1053 245° Southwest 374 430 32,700 1,020 Climbing Washington Center
09:25AM 37.8417 -79.1944 229° Southwest 369 425 33,700 900 Climbing Washington Center
09:26AM 37.7744 -79.2858 227° Southwest 369 425 34,500 840 Climbing Washington Center
09:27AM 37.6958 -79.3922 227° Southwest 374 430 35,500 900 Climbing Washington Center
09:28AM 37.6283 -79.4858 228° Southwest 374 430 36,300 780 Climbing Washington Center
09:29AM 37.5606 -79.5792 228° Southwest 369 425 37,100 660 Climbing Washington Center
09:30AM 37.4925 -79.6753 228° Southwest 369 425 37,700 240 Climbing Washington Center
09:32AM 37.3231 -79.9025 227° Southwest 369 425 38,000 60 Climbing Atlanta Center
09:33AM 37.2553 -79.9947 227° Southwest 363 418 38,000  Level Atlanta Center
09:34AM 37.1933 -80.0761 226° Southwest 363 418 38,000  Level Atlanta Center
09:35AM 37.1272 -80.1653 227° Southwest 358 412 38,000  Level Atlanta Center
09:36AM 37.0614 -80.2544 227° Southwest 358 412 38,000  Level Atlanta Center
09:37AM 36.9953 -80.3433 227° Southwest 353 406 38,000  Level Atlanta Center
09:38AM 36.9211 -80.4403 226° Southwest 353 406 38,000  Level Atlanta Center
09:39AM 36.8547 -80.5289 227° Southwest 353 406 38,000  Level Atlanta Center
09:40AM 36.7864 -80.6200 227° Southwest 353 406 38,000  Level Atlanta Center
09:41AM 36.7261 -80.7056 229° Southwest 353 406 38,000  Level Atlanta Center
09:42AM 36.6597 -80.7961 228° Southwest 348 400 38,000  Level Atlanta Center
09:43AM 36.5914 -80.8844 226° Southwest 354 407 38,000  Level Atlanta Center
09:44AM 36.5228 -80.9750 227° Southwest 354 407 38,000  Level Atlanta Center
09:45AM 36.4561 -81.0653 227° Southwest 354 407 38,000  Level Atlanta Center
09:46AM 36.3872 -81.1528 226° Southwest 354 407 38,000  Level Atlanta Center
09:47AM 36.3267 -81.2375 228° Southwest 354 407 38,000  Level Atlanta Center
09:48AM 36.2578 -81.3250 226° Southwest 354 407 38,000  Level Atlanta Center
09:49AM 36.1886 -81.4147 226° Southwest 354 407 38,000  Level Atlanta Center
09:50AM 36.1219 -81.5067 228° Southwest 354 407 38,000  Level Atlanta Center
09:51AM 36.0506 -81.5939 225° Southwest 359 413 38,000 -60 Level Atlanta Center
09:52AM 35.9817 -81.6883 228° Southwest 359 413 37,900 -600 Descending Atlanta Center
09:53AM 35.9122 -81.7775 226° Southwest 359 413 36,900 -1,020 Descending Atlanta Center
09:54AM 35.8431 -81.8664 226° Southwest 359 413 35,900 -960 Descending Atlanta Center
09:55AM 35.7694 -81.9528 224° Southwest 352 405 35,000 -480 Descending Atlanta Center
09:56AM 35.6936 -82.0392 223° Southwest 372 428 35,000  Level Atlanta Center
09:57AM 35.6178 -82.1278 224° Southwest 372 428 35,000  Level Atlanta Center
09:58AM 35.5419 -82.2189 224° Southwest 372 428 35,000 -600 Level Atlanta Center
09:59AM 35.4639 -82.3047 222° Southwest 372 428 33,900 -1,200 Descending Atlanta Center
10:00AM 35.3881 -82.3956 224° Southwest 377 434 32,700 -1,200 Descending Atlanta Center
10:01AM 35.3078 -82.4836 222° Southwest 377 434 31,500 -1,200 Descending Atlanta Center
10:02AM 35.2297 -82.5742 223° Southwest 382 440 30,300 -780 Descending Atlanta Center
10:03AM 35.1492 -82.6594 221° Southwest 387 445 30,000 -180 Descending Atlanta Center
10:04AM 35.0586 -82.7650 224° Southwest 392 451 30,000  Level Atlanta Center
10:05AM 34.9761 -82.8575 223° Southwest 398 458 30,000 -240 Level Atlanta Center
10:06AM 34.8872 -82.9500 220° Southwest 411 473 29,600 -1,080 Descending Atlanta Center
10:07AM 34.8067 -83.0394 222° Southwest 410 472 27,900 -1,740 Descending Atlanta Center
10:08AM 34.7281 -83.1339 225° Southwest 399 459 26,200 -1,740 Descending Atlanta Center
10:09AM 34.6494 -83.2231 223° Southwest 394 453 24,500 -1,740 Descending Atlanta Center
10:10AM 34.5683 -83.3072 221° Southwest 394 453 22,800 -1,680 Descending Atlanta Center
10:11AM 34.4939 -83.3961 225° Southwest 386 444 21,200 -1,560 Descending Atlanta Center
10:12AM 34.4150 -83.4797 221° Southwest 380 437 19,700 -1,440 Descending Atlanta Center
10:13AM 34.3483 -83.5533 222° Southwest 373 429 18,400 -1,320 Descending Atlanta Center
10:14AM 34.2758 -83.6342 223° Southwest 364 419 17,100 -1,500 Descending Atlanta Center
10:15AM 34.2069 -83.7122 223° Southwest 351 404 15,500 -1,560 Descending Atlanta Center
10:16AM 34.1406 -83.7853 222° Southwest 337 388 14,000 -840 Descending Atlanta Center
10:17AM 34.0717 -83.8608 222° Southwest 337 388 13,900 -780 Descending Atlanta Center
10:18AM 34.0167 -83.9333 228° Southwest 374 430 12,700 -1,140 Descending Atlanta TRACON
10:19AM 33.9500 -84.0000 220° Southwest 320 368 12,000 -360 Descending Atlanta TRACON
10:20AM 33.8833 -84.0833 226° Southwest 325 374 12,000  Level Atlanta TRACON
10:21AM 33.8333 -84.1500 228° Southwest 329 379 12,000  Level Atlanta TRACON
10:22AM 33.7667 -84.2333 226° Southwest 274 315 12,000 -60 Level Atlanta TRACON
10:23AM 33.7333 -84.3000 239° Southwest 272 313 11,900 -960 Descending Atlanta TRACON
10:24AM 33.7333 -84.4000 270° West 272 313 10,100 -1,800 Descending Atlanta TRACON
10:25AM 33.7333 -84.4833 270° West 269 310 8,200 -1,860 Descending Atlanta TRACON
10:26AM 33.7333 -84.5667 270° West 260 299 6,400 -1,620 Descending Atlanta TRACON
10:27AM 33.7333 -84.6667 270° West 257 296 5,000 -720 Descending Atlanta TRACON
10:28AM 33.7333 -84.7500 270° West 253 291 5,000  Level Atlanta TRACON
10:29AM 33.6833 -84.7500 180° South 211 243 5,000  Level Atlanta TRACON
10:30AM 33.6500 -84.6833 121° Southeast 226 260 5,000 -480 Level Atlanta TRACON
10:31AM 33.6500 -84.6167 90° East 221 254 4,200 -1,080 Descending Atlanta TRACON
10:32AM 33.6500 -84.5500 90° East 183 211 2,900 -1,020 Descending Atlanta TRACON
10:33AM 33.6500 -84.5000 90° East 141 162 2,000 -780 Descending Atlanta TRACON
10:34AM 33.6500 -84.4500 90° East 126 145 1,300 -720 Descending Atlanta TRACON